Little Rock, AR (72212)

7:04 AM CST on March 05, 2015 (GMT -0600)
Riverland | Change Station
CLOSE
Current Station
Personal Weather Station
Location: Maumelle, AR
Elevation: 312 ft
Nearby Weather Stations

Elev 312 ft 34.83 °N, 92.40 °W | Updated 54 minutes ago

Overcast
Overcast
22.1 °F
Feels Like 17 °F
N
4.0
Wind Variable Wind from NNW
Gusts 4.0 mph

Today
High -- | Low -- °F
--% Chance of Precip.
Yesterday
High -- | Low -- °F
Precip. -- in
6:34 AM 6:08 PM
Full, 100% visible
Pressure 30.50 in
Visibility 10.0 miles
Clouds Few 6000 ft
Scattered Clouds 10000 ft
Mostly Cloudy 20000 ft
Windchill 17 °F
Dew Point 16 °F
Humidity 79%
Rainfall in
Snow Depth Not available.
UV 0.0 out of 12
Pollen 1.00 out of 12
Air Quality Not available.
Flu Activity Not available.
METAR KLIT 051253Z 36009KT 10SM FEW060 SCT100 BKN200 M05/M08 A3048 RMK AO2 SNE24 SLP328 P0000 T10501083 $

More Conditions Fewer Conditions

Pressure 30.50 in
Visibility 10.0 miles
Clouds Few 6000 ft
Scattered Clouds 10000 ft
Mostly Cloudy 20000 ft
Windchill 17 °F
Dew Point 16 °F
Humidity 79%
Rainfall in
Snow Depth Not available.
UV 0.0 out of 12
Pollen 1.00 out of 12
Air Quality Not available.
Flu Activity Not available.
METAR KLIT 051253Z 36009KT 10SM FEW060 SCT100 BKN200 M05/M08 A3048 RMK AO2 SNE24 SLP328 P0000 T10501083 $

More Conditions Fewer Conditions

10-Day Weather Forecast

Almanac

Astronomy

Mar. 05, 2015 Rise Set
Actual Time
Civil Twilight
Nautical Twilight
Astronomical Twilight
Moon
Length of Visible Light
Length of Day
Tomorrow will be .
, % of the Moon is Illuminated

Today's Extremes

State Highs State Lows

Community

WunderPhotos

Upload Photos

1,802,749 photos uploaded!

WunderBlogs® & News

Nearby

Air Quality

  Air Quality AQ Index Pollutant
Not available.

Snow Depth

Station Depth Elevation

Earthquake Activity

City Distance Mag. Time & Date
Minimum magnitude displayed is 2.5.

Coastal Water Temperatures

Place Temperature

Nearby Weather Stations